Time;durP1;ratioP1;P1;durP2;ratioP2;P2;SDS_P1;SDS_P2;PMS_P1;PMS_P2;Temp;Humidity;BMP_temperature;BMP_pressure;BME280_temperature;BME280_humidity;BME280_pressure;Samples;Min_cycle;Max_cycle;Signal;HPM_P1;HPM_P2
2023/07/30 00:00:50;;;;;;;;;;;;;;;22.22;50.85;100485.22;5097453;28;1102;-23
2023/07/30 00:03:16;;;;;;;;;;;;;;;23.95;47.80;100479.84;5099205;28;1910;-25
2023/07/30 00:05:41;;;;;;;;;;;;;;;24.54;47.90;100480.63;5099318;28;1062;-28
2023/07/30 00:08:07;;;;;;;;;;;;;;;25.79;43.18;100478.19;5098830;28;940;-24
2023/07/30 00:10:32;;;;;;;;;;;;;;;22.93;47.93;100477.09;5099853;28;1129;-24
2023/07/30 00:12:58;;;;;;;;;;;;;;;23.96;48.36;100473.44;5099420;28;1209;-26
2023/07/30 00:15:24;;;;;;;;;;;;;;;24.75;47.15;100469.31;5099008;28;1039;-26
2023/07/30 00:17:49;;;;;;;;;;;;;;;21.75;51.63;100463.88;5099683;28;1030;-24
2023/07/30 00:20:15;;;;;;;;;;;;;;;23.79;48.87;100465.38;5099001;28;1204;-24
2023/07/30 00:22:40;;;;;;;;;;;;;;;24.73;48.11;100473.16;5099316;28;1902;-24
2023/07/30 00:25:06;;;;;;;;;;;;;;;21.89;54.92;100467.03;5099471;28;1189;-24
2023/07/30 00:27:32;;;;;;;;;;;;;;;24.13;48.53;100468.91;5099162;28;1141;-23
2023/07/30 00:29:57;;;;;;;;;;;;;;;24.71;47.74;100467.97;5099501;28;1065;-26
2023/07/30 00:32:23;;;;;;;;;;;;;;;25.88;44.01;100464.63;5080657;28;1170;-26
2023/07/30 00:34:49;;;;;;;;;;;;;;;22.18;50.60;100465.94;5081251;28;1225;-25
2023/07/30 00:37:14;;;;;;;;;;;;;;;23.78;49.24;100465.56;5098683;28;1041;-24
2023/07/30 00:39:40;;;;;;;;;;;;;;;24.67;48.46;100459.41;5080814;28;1254;-25
2023/07/30 00:42:05;;;;;;;;;;;;;;;22.19;54.05;100462.25;5080998;28;1216;-23
2023/07/30 00:44:31;;;;;;;;;;;;;;;24.17;48.17;100461.38;5080659;28;1913;-26
2023/07/30 00:46:57;;;;;;;;;;;;;;;24.95;47.02;100460.84;5080134;28;1031;-27
2023/07/30 00:49:22;;;;;;;;;;;;;;;25.97;43.14;100465.41;5085971;28;1058;-25
2023/07/30 00:51:48;;;;;;;;;;;;;;;22.14;50.84;100454.69;5080975;28;1270;-24
2023/07/30 00:54:13;;;;;;;;;;;;;;;23.92;49.11;100453.31;5095286;28;1392;-22
2023/07/30 00:56:39;;;;;;;;;;;;;;;24.86;48.09;100457.31;5067084;28;1313;-26
2023/07/30 00:59:04;;;;;;;;;;;;;;;22.02;53.15;100464.78;5079359;28;1206;-26
2023/07/30 01:01:31;;;;;;;;;;;;;;;24.02;48.98;100461.19;5098930;28;1182;-24
2023/07/30 01:03:56;;;;;;;;;;;;;;;24.52;48.44;100464.69;5080680;28;1990;-26
2023/07/30 01:06:23;;;;;;;;;;;;;;;22.05;55.46;100460.13;5096046;28;1062;-28
2023/07/30 01:08:49;;;;;;;;;;;;;;;24.28;47.84;100444.91;5098325;28;1268;-27
2023/07/30 01:11:14;;;;;;;;;;;;;;;24.89;47.06;100451.56;5098410;28;1118;-27
2023/07/30 01:13:40;;;;;;;;;;;;;;;25.87;44.52;100446.81;5087564;28;923;-26
2023/07/30 01:16:06;;;;;;;;;;;;;;;22.15;52.31;100452.84;5098620;28;1038;-28
2023/07/30 01:18:32;;;;;;;;;;;;;;;23.98;48.56;100452.63;5079351;28;1219;-24
2023/07/30 01:20:58;;;;;;;;;;;;;;;24.66;48.14;100454.19;5098282;28;885;-26
2023/07/30 01:23:25;;;;;;;;;;;;;;;25.79;43.81;100458.50;5080021;28;1979;-28
2023/07/30 01:25:52;;;;;;;;;;;;;;;22.51;49.23;100447.38;5098160;28;1122;-26
2023/07/30 01:28:18;;;;;;;;;;;;;;;23.62;49.98;100455.66;5073063;28;1245;-27
2023/07/30 01:30:43;;;;;;;;;;;;;;;24.66;48.28;100451.50;5092306;28;1097;-29
2023/07/30 01:33:12;;;;;;;;;;;;;;;25.49;45.26;100444.91;5097464;28;952;-25
2023/07/30 01:35:38;;;;;;;;;;;;;;;24.55;43.21;100447.34;5054853;28;1491;-28
2023/07/30 01:38:05;;;;;;;;;;;;;;;22.44;53.17;100446.31;5047991;28;1545;-26
2023/07/30 01:40:31;;;;;;;;;;;;;;;24.70;46.48;100450.16;5079496;28;1126;-26
2023/07/30 01:42:57;;;;;;;;;;;;;;;25.29;45.72;100451.56;5079942;28;1985;-26
2023/07/30 01:45:22;;;;;;;;;;;;;;;25.26;46.63;100453.78;5094246;28;1356;-27
2023/07/30 01:47:48;;;;;;;;;;;;;;;21.74;56.30;100451.47;5097422;28;1532;-25
2023/07/30 01:50:14;;;;;;;;;;;;;;;24.17;48.21;100451.44;5093262;28;969;-28
2023/07/30 01:52:39;;;;;;;;;;;;;;;24.86;47.14;100451.13;5098146;28;1011;-28
2023/07/30 01:55:05;;;;;;;;;;;;;;;25.59;44.64;100448.16;5097421;28;1118;-25
2023/07/30 01:57:31;;;;;;;;;;;;;;;21.74;52.50;100446.13;5097677;28;1030;-29
2023/07/30 01:59:56;;;;;;;;;;;;;;;23.37;51.15;100456.44;5079618;28;1197;-24
2023/07/30 02:02:22;;;;;;;;;;;;;;;24.62;49.36;100450.19;5079224;28;1222;-26
2023/07/30 02:04:47;;;;;;;;;;;;;;;21.69;56.38;100445.75;5097510;28;1902;-26
2023/07/30 02:07:13;;;;;;;;;;;;;;;23.90;49.45;100441.91;5097636;28;1252;-26
2023/07/30 02:09:38;;;;;;;;;;;;;;;24.62;48.72;100448.34;5096608;28;1130;-28
2023/07/30 02:12:04;;;;;;;;;;;;;;;22.13;55.73;100444.13;5097612;28;1170;-26
2023/07/30 02:14:30;;;;;;;;;;;;;;;24.36;48.22;100446.72;5079040;28;1329;-25
2023/07/30 02:17:00;;;;;;;;;;;;;;;23.26;47.84;100440.63;5078704;28;1213;-26
2023/07/30 02:19:25;;;;;;;;;;;;;;;22.85;52.92;100444.88;5096045;28;1153;-28
2023/07/30 02:21:51;;;;;;;;;;;;;;;24.69;48.04;100448.50;5097462;28;1125;-28
2023/07/30 02:24:16;;;;;;;;;;;;;;;21.90;52.62;100449.97;5096158;28;1906;-26
2023/07/30 02:26:42;;;;;;;;;;;;;;;23.46;51.33;100451.94;5096935;28;1157;-25
2023/07/30 02:29:08;;;;;;;;;;;;;;;24.42;49.89;100448.72;5097253;28;1030;-27
2023/07/30 02:31:33;;;;;;;;;;;;;;;21.77;55.19;100443.13;5096422;28;1114;-26
2023/07/30 02:33:59;;;;;;;;;;;;;;;23.72;50.67;100443.72;5097103;28;1050;-26
2023/07/30 02:36:24;;;;;;;;;;;;;;;24.48;49.16;100455.25;5097185;28;1070;-25
2023/07/30 02:38:50;;;;;;;;;;;;;;;21.74;57.31;100453.31;5096715;28;1103;-24
2023/07/30 02:41:16;;;;;;;;;;;;;;;24.12;49.18;100453.81;5091303;28;1498;-28
2023/07/30 02:43:41;;;;;;;;;;;;;;;24.58;48.51;100463.97;5078354;28;1882;-28
2023/07/30 02:46:07;;;;;;;;;;;;;;;25.41;46.22;100464.63;5078526;28;1394;-27
2023/07/30 02:48:33;;;;;;;;;;;;;;;21.63;53.96;100462.44;5096963;28;1252;-28
2023/07/30 02:50:58;;;;;;;;;;;;;;;23.58;50.82;100463.19;5096422;28;1128;-32
2023/07/30 02:53:24;;;;;;;;;;;;;;;24.40;49.91;100469.56;5096800;28;1173;-27
2023/07/30 02:55:49;;;;;;;;;;;;;;;25.49;45.28;100469.94;5068288;28;1228;-26
2023/07/30 02:58:15;;;;;;;;;;;;;;;22.44;50.78;100467.75;5096076;28;1271;-27
2023/07/30 03:00:40;;;;;;;;;;;;;;;23.62;52.33;100469.94;5085872;28;1056;-27
2023/07/30 03:03:06;;;;;;;;;;;;;;;24.22;51.33;100469.78;5078116;28;2007;-27
2023/07/30 03:05:32;;;;;;;;;;;;;;;23.76;49.63;100463.03;5078669;28;1216;-25
2023/07/30 03:07:57;;;;;;;;;;;;;;;23.20;50.66;100469.81;5063352;28;1328;-25
2023/07/30 03:10:23;;;;;;;;;;;;;;;24.31;49.78;100468.75;5061660;28;1748;-26
2023/07/30 03:12:49;;;;;;;;;;;;;;;24.03;48.79;100470.94;5097065;28;1090;-30
2023/07/30 03:15:14;;;;;;;;;;;;;;;23.52;50.80;100466.56;5078261;28;1093;-27
2023/07/30 03:17:40;;;;;;;;;;;;;;;24.27;50.36;100463.88;5096184;28;1081;-27
2023/07/30 03:20:08;;;;;;;;;;;;;;;23.82;50.07;100472.28;5096353;28;1024;-28
2023/07/30 03:22:34;;;;;;;;;;;;;;;23.03;52.14;100468.06;5077474;28;1146;-25
2023/07/30 03:24:59;;;;;;;;;;;;;;;23.92;51.75;100470.25;5078331;28;1910;-25
2023/07/30 03:27:25;;;;;;;;;;;;;;;24.84;49.14;100467.41;5077917;28;1087;-26
2023/07/30 03:29:50;;;;;;;;;;;;;;;23.82;50.43;100466.91;5095870;28;1095;-29
2023/07/30 03:32:16;;;;;;;;;;;;;;;23.29;51.53;100478.72;5091917;28;1200;-32
2023/07/30 03:34:42;;;;;;;;;;;;;;;23.04;52.22;100475.13;5069303;28;1344;-26
2023/07/30 03:37:07;;;;;;;;;;;;;;;22.83;53.35;100471.84;5081364;28;1043;-30
2023/07/30 03:39:33;;;;;;;;;;;;;;;22.84;54.26;100473.53;5100380;28;1118;-26
2023/07/30 03:41:58;;;;;;;;;;;;;;;23.67;54.34;100480.16;5099623;28;1038;-26
2023/07/30 03:44:24;;;;;;;;;;;;;;;24.93;50.66;100476.31;5099930;28;1976;-26
2023/07/30 03:46:49;;;;;;;;;;;;;;;23.96;53.53;100476.97;5100040;28;1063;-25
2023/07/30 03:49:15;;;;;;;;;;;;;;;24.04;56.43;100472.63;5099810;28;1050;-28
2023/07/30 03:51:41;;;;;;;;;;;;;;;24.98;51.30;100476.63;5081781;28;1260;-27
2023/07/30 03:54:06;;;;;;;;;;;;;;;25.25;51.54;100469.09;5077828;28;1335;-26
2023/07/30 03:56:32;;;;;;;;;;;;;;;25.41;50.33;100478.09;5088527;28;1516;-27
2023/07/30 03:58:57;;;;;;;;;;;;;;;25.60;50.78;100484.88;5099752;28;1138;-25
2023/07/30 04:01:23;;;;;;;;;;;;;;;25.63;51.68;100475.63;5088831;28;1154;-24
2023/07/30 04:03:48;;;;;;;;;;;;;;;25.90;48.98;100478.78;5099122;28;1984;-31
2023/07/30 04:06:14;;;;;;;;;;;;;;;25.35;51.36;100476.09;5099815;28;1114;-27
2023/07/30 04:08:40;;;;;;;;;;;;;;;24.96;53.08;100469.75;5094627;28;1138;-28
2023/07/30 04:11:05;;;;;;;;;;;;;;;25.54;51.29;100474.81;5074116;28;1035;-26
2023/07/30 04:13:31;;;;;;;;;;;;;;;25.29;52.85;100474.97;5081261;28;1132;-25
2023/07/30 04:15:57;;;;;;;;;;;;;;;25.82;50.46;100479.69;5098476;28;2412;-27
2023/07/30 04:18:23;;;;;;;;;;;;;;;25.64;50.83;100478.13;5098571;28;2232;-25
2023/07/30 04:20:48;;;;;;;;;;;;;;;25.92;51.08;100480.25;5077720;28;2146;-26
2023/07/30 04:23:14;;;;;;;;;;;;;;;22.67;55.86;100480.63;5098097;28;2484;-25
2023/07/30 04:25:39;;;;;;;;;;;;;;;20.95;59.72;100483.25;5075511;28;2164;-26
2023/07/30 04:28:05;;;;;;;;;;;;;;;22.85;57.08;100485.94;5098537;28;2211;-23
2023/07/30 04:30:31;;;;;;;;;;;;;;;21.99;54.15;100477.66;5080536;28;1955;-26
2023/07/30 04:32:57;;;;;;;;;;;;;;;21.97;58.77;100485.84;5092895;28;1138;-27
2023/07/30 04:35:23;;;;;;;;;;;;;;;24.04;48.90;100480.69;5073178;28;1160;-23
2023/07/30 04:37:48;;;;;;;;;;;;;;;21.50;60.06;100473.53;5098572;28;1083;-27
2023/07/30 04:40:15;;;;;;;;;;;;;;;24.29;51.57;100478.81;5080697;28;1181;-26
2023/07/30 04:42:41;;;;;;;;;;;;;;;20.54;58.16;100479.88;5080502;28;1162;-25
2023/07/30 04:45:07;;;;;;;;;;;;;;;22.95;54.77;100487.66;5098000;28;1972;-26
2023/07/30 04:47:35;;;;;;;;;;;;;;;21.39;55.84;100491.47;5080138;28;1259;-26
2023/07/30 04:50:01;;;;;;;;;;;;;;;20.10;60.32;100493.75;5080790;28;1371;-25
2023/07/30 04:52:26;;;;;;;;;;;;;;;22.03;58.00;100500.47;5080260;28;1232;-25
2023/07/30 04:54:52;;;;;;;;;;;;;;;22.00;53.89;100498.91;5098342;28;1011;-24
2023/07/30 04:57:17;;;;;;;;;;;;;;;20.19;60.15;100487.53;5096512;28;1077;-25
2023/07/30 04:59:43;;;;;;;;;;;;;;;22.65;56.04;100493.38;5080215;28;1937;-24
2023/07/30 05:02:09;;;;;;;;;;;;;;;21.09;57.46;100495.28;5079990;28;1153;-27
2023/07/30 05:04:34;;;;;;;;;;;;;;;21.16;61.50;100493.72;5098442;28;1966;-29
2023/07/30 05:07:00;;;;;;;;;;;;;;;23.67;52.61;100497.09;5098621;28;1058;-26
2023/07/30 05:09:26;;;;;;;;;;;;;;;20.33;60.17;100501.44;5098011;28;1561;-25
2023/07/30 05:11:51;;;;;;;;;;;;;;;21.72;58.98;100508.88;5098201;28;1082;-27
2023/07/30 05:14:17;;;;;;;;;;;;;;;22.33;52.82;100508.22;5098100;28;1228;-25
2023/07/30 05:16:42;;;;;;;;;;;;;;;20.55;62.20;100496.75;5098831;28;1069;-28
2023/07/30 05:19:08;;;;;;;;;;;;;;;23.55;53.46;100503.81;5098608;28;1138;-27
2023/07/30 05:21:33;;;;;;;;;;;;;;;20.91;59.16;100506.75;5098110;28;1054;-32
2023/07/30 05:23:59;;;;;;;;;;;;;;;21.36;61.57;100504.28;5085971;28;1918;-25
2023/07/30 05:26:25;;;;;;;;;;;;;;;24.50;51.68;100516.94;5096958;28;1115;-25
2023/07/30 05:28:50;;;;;;;;;;;;;;;21.12;64.47;100511.06;5098137;28;1129;-30
2023/07/30 05:31:16;;;;;;;;;;;;;;;23.98;54.15;100503.69;5098340;28;1208;-28
2023/07/30 05:33:41;;;;;;;;;;;;;;;22.83;55.88;100512.09;5097698;28;1120;-27
2023/07/30 05:36:07;;;;;;;;;;;;;;;22.69;56.89;100518.88;5096964;28;1092;-25
2023/07/30 05:38:33;;;;;;;;;;;;;;;24.94;50.97;100521.88;5098149;28;1106;-28
2023/07/30 05:40:58;;;;;;;;;;;;;;;25.36;50.18;100518.19;5098183;28;1130;-26
2023/07/30 05:43:24;;;;;;;;;;;;;;;25.90;48.35;100522.75;5097596;28;1905;-27
2023/07/30 05:45:50;;;;;;;;;;;;;;;25.95;48.33;100527.59;5097589;28;1145;-31
2023/07/30 05:48:15;;;;;;;;;;;;;;;25.98;48.53;100526.38;5098158;28;1098;-27
2023/07/30 05:50:41;;;;;;;;;;;;;;;26.44;46.83;100521.97;5097780;28;1030;-32
2023/07/30 05:53:06;;;;;;;;;;;;;;;26.55;46.12;100524.22;5097779;28;1057;-30
2023/07/30 05:55:32;;;;;;;;;;;;;;;26.52;46.57;100519.19;5097804;28;1098;-26
2023/07/30 05:57:58;;;;;;;;;;;;;;;26.79;45.55;100527.66;5096392;28;1125;-27
2023/07/30 06:00:24;;;;;;;;;;;;;;;27.09;45.34;100529.53;5097211;28;1101;-27
2023/07/30 06:02:49;;;;;;;;;;;;;;;27.13;45.26;100526.28;5098061;28;1153;-27
2023/07/30 06:05:15;;;;;;;;;;;;;;;27.40;44.55;100525.75;5097420;28;1906;-26
2023/07/30 06:07:40;;;;;;;;;;;;;;;26.97;45.61;100516.50;5097348;28;1173;-26
2023/07/30 06:10:06;;;;;;;;;;;;;;;27.44;44.76;100524.34;5096935;28;1120;-30
2023/07/30 06:12:32;;;;;;;;;;;;;;;27.25;44.57;100525.78;5096925;28;1112;-26
2023/07/30 06:14:57;;;;;;;;;;;;;;;27.29;44.98;100523.53;5097352;28;1106;-27
2023/07/30 06:17:23;;;;;;;;;;;;;;;27.35;45.03;100522.78;5097139;28;1096;-25
2023/07/30 06:19:48;;;;;;;;;;;;;;;27.45;44.71;100525.16;5096712;28;1561;-26
2023/07/30 06:22:14;;;;;;;;;;;;;;;27.64;44.48;100521.03;5096740;28;1152;-26
2023/07/30 06:24:40;;;;;;;;;;;;;;;27.13;45.81;100517.31;5097013;28;1906;-26
2023/07/30 06:27:05;;;;;;;;;;;;;;;27.13;46.77;100528.13;5096596;28;1185;-25
2023/07/30 06:29:31;;;;;;;;;;;;;;;27.25;45.76;100528.47;5096409;28;1022;-28
2023/07/30 06:31:56;;;;;;;;;;;;;;;27.63;44.43;100525.56;5096845;28;1126;-28
2023/07/30 06:34:22;;;;;;;;;;;;;;;27.68;44.29;100519.63;5096256;28;903;-30
2023/07/30 06:36:48;;;;;;;;;;;;;;;27.39;45.50;100521.38;5096819;28;1154;-26
2023/07/30 06:39:13;;;;;;;;;;;;;;;27.43;45.59;100519.97;5096704;28;1035;-28
2023/07/30 06:41:39;;;;;;;;;;;;;;;27.33;45.57;100520.25;5096664;28;1098;-25
2023/07/30 06:44:05;;;;;;;;;;;;;;;27.85;43.94;100514.81;5061449;28;1909;-28
2023/07/30 06:46:30;;;;;;;;;;;;;;;27.70;43.80;100522.13;5096641;28;861;-31
2023/07/30 06:48:56;;;;;;;;;;;;;;;28.09;42.92;100517.28;5096808;28;1082;-25
2023/07/30 06:51:24;;;;;;;;;;;;;;;27.71;43.38;100515.72;5096213;28;1034;-25
2023/07/30 06:53:49;;;;;;;;;;;;;;;28.01;42.99;100503.91;5096737;28;1129;-29
2023/07/30 06:56:15;;;;;;;;;;;;;;;27.30;46.26;100515.25;5096846;28;1106;-28
2023/07/30 06:58:40;;;;;;;;;;;;;;;27.68;45.16;100502.53;5096364;28;1137;-27
2023/07/30 07:01:06;;;;;;;;;;;;;;;27.12;46.05;100504.84;5096411;28;1118;-25
2023/07/30 07:03:31;;;;;;;;;;;;;;;27.74;44.54;100508.03;5096351;28;1906;-25
2023/07/30 07:05:57;;;;;;;;;;;;;;;28.16;43.56;100498.41;5096733;28;1058;-27
2023/07/30 07:08:22;;;;;;;;;;;;;;;27.94;43.52;100501.16;5096129;28;1081;-30
2023/07/30 07:10:48;;;;;;;;;;;;;;;27.96;43.26;100497.22;5096110;28;973;-26
2023/07/30 07:13:16;;;;;;;;;;;;;;;28.09;42.51;100501.06;5096292;28;1050;-28
2023/07/30 07:15:42;;;;;;;;;;;;;;;28.54;41.74;100500.78;5096266;28;1094;-27
2023/07/30 07:18:08;;;;;;;;;;;;;;;28.04;43.62;100500.81;5096018;28;1078;-29
2023/07/30 07:20:34;;;;;;;;;;;;;;;27.90;44.24;100503.41;5096100;28;1086;-24
2023/07/30 07:22:59;;;;;;;;;;;;;;;28.28;41.94;100499.53;5095792;28;1963;-24
2023/07/30 07:25:25;;;;;;;;;;;;;;;28.53;42.34;100504.53;5096445;28;1000;-28
2023/07/30 07:27:50;;;;;;;;;;;;;;;28.34;42.75;100498.78;5096536;28;1153;-28
2023/07/30 07:30:16;;;;;;;;;;;;;;;28.58;42.13;100495.81;5096291;28;1279;-29
2023/07/30 07:32:41;;;;;;;;;;;;;;;28.44;42.48;100500.31;5096292;28;1113;-29
2023/07/30 07:35:07;;;;;;;;;;;;;;;28.04;43.71;100498.97;5095748;28;836;-27
2023/07/30 07:37:33;;;;;;;;;;;;;;;28.47;42.54;100502.63;5096206;28;1138;-27
2023/07/30 07:39:58;;;;;;;;;;;;;;;28.68;42.10;100498.13;5096417;28;1101;-28
2023/07/30 07:42:24;;;;;;;;;;;;;;;28.40;42.81;100504.44;5096266;28;1046;-26
2023/07/30 07:44:49;;;;;;;;;;;;;;;28.75;42.05;100507.16;5095916;28;1901;-28
2023/07/30 07:47:15;;;;;;;;;;;;;;;28.13;43.48;100496.13;5093573;28;1315;-28
2023/07/30 07:49:41;;;;;;;;;;;;;;;28.29;43.50;100486.84;5095944;28;1077;-27
2023/07/30 07:52:07;;;;;;;;;;;;;;;28.75;41.75;100490.91;5096329;28;1090;-25
2023/07/30 07:54:32;;;;;;;;;;;;;;;28.89;42.17;100491.81;5096406;28;1162;-26
2023/07/30 07:56:58;;;;;;;;;;;;;;;28.58;42.36;100491.22;5095746;28;1181;-29
2023/07/30 07:59:23;;;;;;;;;;;;;;;28.90;42.08;100481.78;5095714;28;960;-28
2023/07/30 08:01:49;;;;;;;;;;;;;;;28.85;41.92;100490.53;5096250;28;1178;-32
2023/07/30 08:04:14;;;;;;;;;;;;;;;28.87;41.99;100479.50;5095821;28;1905;-29
2023/07/30 08:06:40;;;;;;;;;;;;;;;28.92;41.72;100487.84;5095843;28;1149;-31
2023/07/30 08:09:05;;;;;;;;;;;;;;;28.78;41.95;100482.38;5095786;28;1075;-28
2023/07/30 08:11:31;;;;;;;;;;;;;;;28.91;42.17;100478.88;5094987;28;1165;-25
2023/07/30 08:13:57;;;;;;;;;;;;;;;28.80;41.82;100476.75;5096043;28;1058;-26
2023/07/30 08:16:22;;;;;;;;;;;;;;;28.67;42.08;100485.66;5095928;28;1145;-26
2023/07/30 08:18:48;;;;;;;;;;;;;;;28.85;41.39;100477.00;5096098;28;1281;-25
2023/07/30 08:21:17;;;;;;;;;;;;;;;28.87;41.04;100483.06;5096274;28;1193;-29
2023/07/30 08:23:42;;;;;;;;;;;;;;;28.92;40.96;100483.28;5095840;28;1906;-28
2023/07/30 08:26:08;;;;;;;;;;;;;;;28.97;41.01;100493.53;5099311;28;1130;-28
2023/07/30 08:28:34;;;;;;;;;;;;;;;28.83;41.02;100488.03;5099204;28;1041;-26
2023/07/30 08:31:01;;;;;;;;;;;;;;;28.90;40.36;100485.34;5096308;28;1137;-28
2023/07/30 08:33:26;;;;;;;;;;;;;;;28.81;40.44;100486.56;5099362;28;1050;-30
2023/07/30 08:35:54;;;;;;;;;;;;;;;28.70;40.79;100487.97;5097818;28;1106;-29
2023/07/30 08:38:20;;;;;;;;;;;;;;;28.56;40.18;100487.06;5090350;28;1098;-28
2023/07/30 08:40:45;;;;;;;;;;;;;;;28.50;40.92;100493.25;5092356;28;1508;-31
2023/07/30 08:43:11;;;;;;;;;;;;;;;28.55;40.85;100488.94;5078567;28;1965;-28
2023/07/30 08:45:36;;;;;;;;;;;;;;;28.51;40.38;100489.53;5081182;28;1130;-31
2023/07/30 08:48:02;;;;;;;;;;;;;;;28.54;39.66;100479.16;5098713;28;963;-29
2023/07/30 08:50:28;;;;;;;;;;;;;;;28.47;39.86;100481.81;5096447;28;1022;-29
2023/07/30 08:52:54;;;;;;;;;;;;;;;28.33;40.06;100482.75;5078820;28;1027;-28
2023/07/30 08:55:19;;;;;;;;;;;;;;;28.34;39.44;100479.03;5094567;28;1107;-29
2023/07/30 08:57:45;;;;;;;;;;;;;;;28.29;39.90;100484.16;5099053;28;1039;-27
2023/07/30 09:00:11;;;;;;;;;;;;;;;28.41;39.72;100476.38;5094468;28;1113;-27
2023/07/30 09:02:39;;;;;;;;;;;;;;;28.55;38.99;100477.25;5090146;28;1130;-26
2023/07/30 09:05:06;;;;;;;;;;;;;;;28.58;38.12;100474.16;5094114;28;1910;-29
2023/07/30 09:07:31;;;;;;;;;;;;;;;28.40;38.45;100474.66;5089525;28;1197;-28
2023/07/30 09:09:57;;;;;;;;;;;;;;;28.17;39.30;100462.22;5094354;28;1151;-30
2023/07/30 09:12:26;;;;;;;;;;;;;;;28.29;38.81;100454.41;5097463;28;914;-28
2023/07/30 09:14:51;;;;;;;;;;;;;;;28.34;38.32;100460.91;5084826;28;1037;-32
2023/07/30 09:17:17;;;;;;;;;;;;;;;28.42;38.62;100459.94;5098176;28;1117;-27
2023/07/30 09:19:43;;;;;;;;;;;;;;;28.56;37.95;100451.88;5082363;28;1077;-27
2023/07/30 09:22:09;;;;;;;;;;;;;;;28.17;39.12;100446.84;5078286;28;1110;-31
2023/07/30 09:24:34;;;;;;;;;;;;;;;28.52;38.37;100453.31;5091249;28;1905;-30
2023/07/30 09:27:03;;;;;;;;;;;;;;;28.29;39.16;100452.53;5079567;28;1119;-27
2023/07/30 09:29:29;;;;;;;;;;;;;;;28.34;38.74;100455.50;5091398;28;1131;-31
2023/07/30 09:31:54;;;;;;;;;;;;;;;28.29;38.92;100454.41;5078457;28;1051;-28
2023/07/30 09:34:20;;;;;;;;;;;;;;;28.31;38.62;100455.84;5093497;28;1014;-30
2023/07/30 09:36:46;;;;;;;;;;;;;;;28.10;39.66;100446.78;5097925;28;944;-29
2023/07/30 09:39:22;;;;;;;;;;;;;;;28.07;39.25;100446.34;5066186;28;1234;-28
2023/07/30 09:41:48;;;;;;;;;;;;;;;28.17;39.50;100446.00;5095753;28;1070;-28
2023/07/30 09:44:16;;;;;;;;;;;;;;;28.20;38.99;100449.16;5084079;28;1966;-31
2023/07/30 09:46:45;;;;;;;;;;;;;;;28.11;40.24;100442.22;5070875;28;1103;-27
2023/07/30 09:49:11;;;;;;;;;;;;;;;28.30;39.42;100445.25;5084561;28;1079;-29
2023/07/30 09:51:39;;;;;;;;;;;;;;;28.39;39.48;100444.09;5097708;28;1288;-27
2023/07/30 09:54:08;;;;;;;;;;;;;;;28.47;39.32;100451.22;5092894;28;1097;-31
2023/07/30 09:56:37;;;;;;;;;;;;;;;28.26;39.17;100449.38;5097544;28;1265;-31
2023/07/30 09:59:04;;;;;;;;;;;;;;;28.07;40.06;100447.19;5090220;28;1091;-30
2023/07/30 10:01:29;;;;;;;;;;;;;;;28.06;39.28;100447.38;5079195;28;1051;-30
2023/07/30 10:03:58;;;;;;;;;;;;;;;27.93;40.55;100442.69;5085096;28;1979;-30
2023/07/30 10:06:27;;;;;;;;;;;;;;;28.13;40.02;100436.63;5084130;28;1062;-29
2023/07/30 10:08:53;;;;;;;;;;;;;;;27.98;40.06;100442.94;5097869;28;1015;-28
2023/07/30 10:11:18;;;;;;;;;;;;;;;27.94;40.44;100436.28;5076650;28;1046;-30
2023/07/30 10:13:44;;;;;;;;;;;;;;;28.00;39.70;100435.47;5071431;28;1181;-28
2023/07/30 10:16:10;;;;;;;;;;;;;;;27.98;40.12;100435.69;5072718;28;1551;-27
2023/07/30 10:18:39;;;;;;;;;;;;;;;28.06;39.68;100437.38;5076755;28;1191;-31
2023/07/30 10:21:06;;;;;;;;;;;;;;;28.07;39.27;100432.81;5093036;28;1289;-28
2023/07/30 10:23:32;;;;;;;;;;;;;;;28.02;39.75;100427.16;5096792;28;1905;-27
2023/07/30 10:25:59;;;;;;;;;;;;;;;28.07;39.21;100427.41;5096911;28;1074;-34
2023/07/30 10:28:27;;;;;;;;;;;;;;;28.04;39.93;100427.81;5087872;28;1126;-28
2023/07/30 10:30:56;;;;;;;;;;;;;;;28.01;39.10;100417.41;5092495;28;1042;-31
2023/07/30 10:33:22;;;;;;;;;;;;;;;28.04;39.70;100428.66;5083982;28;1087;-27
2023/07/30 10:35:48;;;;;;;;;;;;;;;28.04;39.93;100431.38;5077054;28;1110;-28
2023/07/30 10:38:16;;;;;;;;;;;;;;;28.07;39.39;100427.41;5090154;28;1166;-28
2023/07/30 10:40:42;;;;;;;;;;;;;;;27.99;40.06;100428.41;5090255;28;1115;-32
2023/07/30 10:43:14;;;;;;;;;;;;;;;28.10;39.56;100427.03;5085826;28;1909;-30
2023/07/30 10:45:48;;;;;;;;;;;;;;;28.02;39.92;100432.56;5077580;28;1054;-31
2023/07/30 10:48:13;;;;;;;;;;;;;;;28.13;39.70;100428.50;5096337;28;1081;-27
2023/07/30 10:50:39;;;;;;;;;;;;;;;28.08;39.61;100427.22;5092953;28;1031;-28
2023/07/30 10:53:07;;;;;;;;;;;;;;;28.01;39.92;100417.41;5087260;28;1292;-34
2023/07/30 10:55:33;;;;;;;;;;;;;;;28.03;39.90;100428.88;5078823;28;1142;-28
2023/07/30 10:57:59;;;;;;;;;;;;;;;28.04;39.70;100423.25;5076353;28;1113;-30
2023/07/30 11:00:25;;;;;;;;;;;;;;;28.38;38.48;100419.94;5079159;28;1039;-29
2023/07/30 11:02:54;;;;;;;;;;;;;;;28.42;39.19;100418.50;5087418;28;1111;-28
2023/07/30 11:05:19;;;;;;;;;;;;;;;28.31;39.85;100420.69;5077798;28;1983;-31
2023/07/30 11:07:51;;;;;;;;;;;;;;;28.40;39.38;100412.44;5070542;28;1071;-28
2023/07/30 11:10:17;;;;;;;;;;;;;;;28.34;40.11;100401.38;5083428;28;1142;-32
2023/07/30 11:12:42;;;;;;;;;;;;;;;28.54;39.07;100407.94;5084933;28;1308;-27
2023/07/30 11:15:08;;;;;;;;;;;;;;;28.38;39.36;100395.59;5082996;28;1094;-29
2023/07/30 11:17:34;;;;;;;;;;;;;;;28.50;39.57;100412.06;5083243;28;1126;-27
2023/07/30 11:19:59;;;;;;;;;;;;;;;28.48;39.15;100406.88;5082789;28;1082;-28
2023/07/30 11:22:32;;;;;;;;;;;;;;;28.40;39.44;100410.59;5085853;28;1122;-30
2023/07/30 11:24:57;;;;;;;;;;;;;;;28.28;38.81;100399.47;5093431;28;1973;-31
2023/07/30 11:27:23;;;;;;;;;;;;;;;28.18;40.29;100407.94;5084773;28;1100;-30
2023/07/30 11:29:58;;;;;;;;;;;;;;;28.06;39.88;100404.13;5093791;28;1174;-26
2023/07/30 11:32:25;;;;;;;;;;;;;;;27.94;40.34;100396.56;5083854;28;1146;-26
2023/07/30 11:34:51;;;;;;;;;;;;;;;28.11;40.26;100399.78;5077647;28;1186;-33
2023/07/30 11:37:17;;;;;;;;;;;;;;;28.03;40.00;100402.63;5083525;28;897;-26
2023/07/30 11:39:42;;;;;;;;;;;;;;;28.16;40.01;100398.38;5058116;28;1060;-29
2023/07/30 11:42:08;;;;;;;;;;;;;;;28.15;39.86;100402.94;5089614;28;1087;-32
2023/07/30 11:44:38;;;;;;;;;;;;;;;28.09;40.00;100401.84;5083515;28;1949;-35
2023/07/30 11:47:04;;;;;;;;;;;;;;;28.12;40.20;100395.22;5095069;28;1098;-31
2023/07/30 11:49:29;;;;;;;;;;;;;;;28.12;40.01;100395.22;5095830;28;929;-30
2023/07/30 11:52:08;;;;;;;;;;;;;;;27.63;35.74;100392.34;5077826;28;1110;-29
2023/07/30 11:54:33;;;;;;;;;;;;;;;27.97;36.18;100393.47;5095099;28;1035;-29
2023/07/30 11:56:59;;;;;;;;;;;;;;;28.54;37.54;100394.41;5084784;28;1081;-31
2023/07/30 11:59:25;;;;;;;;;;;;;;;28.39;38.18;100387.28;5093384;28;1201;-30
2023/07/30 12:01:50;;;;;;;;;;;;;;;28.30;39.04;100383.88;5098422;28;1151;-27
2023/07/30 12:04:16;;;;;;;;;;;;;;;28.45;38.70;100386.47;5086159;28;1906;-26
2023/07/30 12:06:42;;;;;;;;;;;;;;;28.53;38.18;100390.88;5100046;28;1106;-29
2023/07/30 12:09:11;;;;;;;;;;;;;;;28.68;38.31;100377.19;5093593;28;1122;-28
2023/07/30 12:11:43;;;;;;;;;;;;;;;28.46;38.54;100369.19;5079567;28;1031;-31
2023/07/30 12:14:09;;;;;;;;;;;;;;;28.43;39.42;100366.91;5080043;28;976;-27
2023/07/30 12:16:35;;;;;;;;;;;;;;;28.58;38.99;100371.31;5078826;28;1027;-29
2023/07/30 12:19:00;;;;;;;;;;;;;;;28.73;39.35;100365.75;5061065;28;1223;-31
2023/07/30 12:21:26;;;;;;;;;;;;;;;28.49;39.49;100373.38;5074609;28;1038;-29
2023/07/30 12:23:51;;;;;;;;;;;;;;;28.55;39.98;100375.28;5086029;28;1992;-29
2023/07/30 12:26:17;;;;;;;;;;;;;;;28.63;39.66;100368.84;5084960;28;891;-29
2023/07/30 12:28:42;;;;;;;;;;;;;;;28.50;40.01;100363.38;5085969;28;1014;-32
2023/07/30 12:31:08;;;;;;;;;;;;;;;28.52;39.79;100361.31;5099438;28;1074;-31
2023/07/30 12:33:34;;;;;;;;;;;;;;;28.55;40.04;100358.19;5092622;28;1212;-27
2023/07/30 12:35:59;;;;;;;;;;;;;;;28.57;39.62;100356.97;5078920;28;1057;-32
2023/07/30 12:38:25;;;;;;;;;;;;;;;28.52;40.12;100345.91;5085486;28;900;-27
2023/07/30 12:40:50;;;;;;;;;;;;;;;28.54;40.68;100341.16;5099068;28;1245;-31